Time;durP1;ratioP1;P1;durP2;ratioP2;P2;SDS_P1;SDS_P2;PMS_P1;PMS_P2;Temp;Humidity;BMP_temperature;BMP_pressure;BME280_temperature;BME280_humidity;BME280_pressure;Samples;Min_cycle;Max_cycle;Signal;HPM_P1;HPM_P2
2021/08/31 00:02:15;;;;;;;9.77;7.20;;;15.30;99.90;;;;;;5112390;28;20185;-69
2021/08/31 00:04:41;;;;;;;14.83;7.17;;;15.20;99.90;;;;;;5113769;28;20739;-69
2021/08/31 00:07:06;;;;;;;13.13;5.93;;;15.20;99.90;;;;;;5113858;28;20173;-69
2021/08/31 00:09:32;;;;;;;10.20;7.33;;;15.20;99.90;;;;;;5113762;28;20485;-69
2021/08/31 00:11:58;;;;;;;9.37;7.60;;;15.20;99.90;;;;;;5113626;28;20170;-69
2021/08/31 00:14:23;;;;;;;9.10;7.10;;;15.20;99.90;;;;;;5113710;28;20169;-69
2021/08/31 00:16:49;;;;;;;8.27;6.77;;;15.20;99.90;;;;;;5113029;28;20181;-70
2021/08/31 00:19:14;;;;;;;7.00;6.30;;;15.20;99.90;;;;;;5113208;28;20165;-69
2021/08/31 00:21:40;;;;;;;9.80;7.33;;;15.20;99.90;;;;;;5113211;28;20245;-69
2021/08/31 00:24:06;;;;;;;8.10;6.20;;;15.20;99.90;;;;;;5113624;28;20180;-69
2021/08/31 00:26:32;;;;;;;7.83;7.03;;;15.20;99.90;;;;;;5112292;28;20418;-70
2021/08/31 00:28:58;;;;;;;8.73;7.33;;;15.20;99.90;;;;;;5111885;28;20172;-69
2021/08/31 00:31:23;;;;;;;9.30;6.57;;;15.10;99.90;;;;;;5112919;28;20716;-69
2021/08/31 00:33:49;;;;;;;10.67;7.20;;;15.10;99.90;;;;;;5112929;28;20262;-69
2021/08/31 00:36:14;;;;;;;8.10;6.80;;;15.10;99.90;;;;;;5111506;28;20212;-69
2021/08/31 00:38:40;;;;;;;9.50;8.30;;;15.10;99.90;;;;;;5094417;28;20251;-69
2021/08/31 00:41:05;;;;;;;12.70;7.70;;;15.10;99.90;;;;;;5112652;28;20256;-69
2021/08/31 00:43:48;;;;;;;8.93;8.03;;;15.10;99.90;;;;;;5111204;28;20616;-69
2021/08/31 00:46:14;;;;;;;10.13;7.97;;;15.10;99.90;;;;;;5112605;28;20168;-69
2021/08/31 00:48:41;;;;;;;11.73;7.27;;;15.10;99.90;;;;;;5112191;28;20535;-69
2021/08/31 00:51:08;;;;;;;7.57;6.53;;;15.10;99.90;;;;;;5112558;28;20482;-69
2021/08/31 00:53:34;;;;;;;10.23;7.33;;;15.10;99.90;;;;;;5112506;28;20967;-69
2021/08/31 00:56:01;;;;;;;7.83;7.00;;;15.10;99.90;;;;;;5112477;28;20825;-69
2021/08/31 00:58:26;;;;;;;8.70;7.83;;;15.10;99.90;;;;;;5110823;28;20478;-69
2021/08/31 01:00:52;;;;;;;7.27;6.50;;;15.10;99.90;;;;;;5111419;28;20828;-69
2021/08/31 01:03:17;;;;;;;10.00;7.20;;;15.10;99.90;;;;;;5110964;28;20200;-69
2021/08/31 01:05:43;;;;;;;9.87;7.57;;;15.10;99.90;;;;;;5112282;28;20235;-69
2021/08/31 01:08:09;;;;;;;9.90;7.30;;;15.10;99.90;;;;;;5110890;28;20169;-70
2021/08/31 01:10:34;;;;;;;8.97;7.50;;;15.10;99.90;;;;;;5112285;28;20219;-70
2021/08/31 01:13:00;;;;;;;10.77;7.80;;;15.10;99.90;;;;;;5112105;28;20195;-68
2021/08/31 01:15:28;;;;;;;10.97;7.67;;;15.10;99.90;;;;;;5110878;28;20226;-69
2021/08/31 01:17:54;;;;;;;9.60;7.63;;;15.00;99.90;;;;;;5110817;28;20262;-69
2021/08/31 01:20:32;;;;;;;10.70;7.57;;;15.00;99.90;;;;;;5112229;28;20399;-69
2021/08/31 01:22:58;;;;;;;9.10;7.17;;;15.00;99.90;;;;;;5111246;28;20181;-68
2021/08/31 01:25:23;;;;;;;9.80;8.77;;;15.00;99.90;;;;;;5111031;28;20921;-69
2021/08/31 01:27:49;;;;;;;9.30;6.60;;;15.00;99.90;;;;;;5112061;28;20207;-69
2021/08/31 01:30:14;;;;;;;10.77;7.93;;;15.00;99.90;;;;;;5111377;28;20644;-69
2021/08/31 01:32:40;;;;;;;9.17;7.33;;;15.00;99.90;;;;;;5111961;28;20189;-68
2021/08/31 01:35:06;;;;;;;10.10;7.30;;;15.00;99.90;;;;;;5112177;28;20174;-69
2021/08/31 01:37:31;;;;;;;10.90;7.70;;;15.00;99.90;;;;;;5111699;28;20200;-68
2021/08/31 01:39:57;;;;;;;8.77;6.73;;;15.00;99.90;;;;;;5110828;28;20173;-69
2021/08/31 01:42:22;;;;;;;9.03;6.67;;;15.00;99.90;;;;;;5110550;28;20194;-69
2021/08/31 01:44:48;;;;;;;9.40;7.03;;;15.10;99.90;;;;;;5112124;28;20157;-69
2021/08/31 01:47:13;;;;;;;13.43;8.53;;;15.00;99.90;;;;;;5111929;28;20168;-70
2021/08/31 01:49:39;;;;;;;8.20;7.40;;;15.00;99.90;;;;;;5112016;28;20589;-69
2021/08/31 01:52:05;;;;;;;9.40;7.20;;;15.00;99.90;;;;;;5110500;28;20663;-69
2021/08/31 01:54:30;;;;;;;9.00;7.63;;;15.00;99.90;;;;;;5110619;28;20171;-69
2021/08/31 01:56:56;;;;;;;8.80;7.33;;;15.00;99.90;;;;;;5111875;28;20640;-70
2021/08/31 01:59:21;;;;;;;11.60;8.40;;;15.00;99.90;;;;;;5111054;28;20161;-68
2021/08/31 02:01:47;;;;;;;13.27;7.50;;;15.00;99.90;;;;;;5115765;28;20586;-69
2021/08/31 02:04:12;;;;;;;9.70;8.73;;;15.00;99.90;;;;;;5115761;28;20259;-69
2021/08/31 02:06:38;;;;;;;12.07;7.60;;;15.00;99.90;;;;;;5115635;28;20161;-70
2021/08/31 02:09:03;;;;;;;9.43;7.60;;;15.00;99.90;;;;;;5115766;28;20169;-69
2021/08/31 02:11:29;;;;;;;10.07;7.93;;;15.00;99.90;;;;;;5114303;28;20173;-69
2021/08/31 02:13:54;;;;;;;8.73;7.20;;;15.00;99.90;;;;;;5115650;28;20193;-70
2021/08/31 02:16:20;;;;;;;12.23;7.90;;;15.00;99.90;;;;;;5114240;28;20169;-69
2021/08/31 02:18:45;;;;;;;11.90;9.43;;;14.90;99.90;;;;;;5115393;28;20208;-69
2021/08/31 02:21:11;;;;;;;9.87;8.67;;;14.90;99.90;;;;;;5114100;28;20657;-69
2021/08/31 02:23:38;;;;;;;9.93;8.03;;;14.90;99.90;;;;;;5115398;28;20181;-69
2021/08/31 02:26:04;;;;;;;9.33;8.33;;;14.90;99.90;;;;;;5115566;28;20170;-69
2021/08/31 02:28:29;;;;;;;8.80;7.87;;;14.80;99.90;;;;;;5115246;28;20925;-68
2021/08/31 02:30:55;;;;;;;8.33;7.53;;;14.80;99.90;;;;;;5115588;28;20417;-70
2021/08/31 02:33:20;;;;;;;11.63;8.60;;;14.80;99.90;;;;;;5115204;28;20244;-68
2021/08/31 02:35:46;;;;;;;11.63;8.30;;;14.80;99.90;;;;;;5115155;28;20643;-68
2021/08/31 02:38:12;;;;;;;9.57;8.57;;;14.80;99.90;;;;;;5114980;28;20241;-69
2021/08/31 02:40:38;;;;;;;11.17;8.43;;;14.80;99.90;;;;;;5115227;28;20624;-69
2021/08/31 02:43:03;;;;;;;13.30;11.60;;;14.70;99.90;;;;;;5115041;28;20556;-69
2021/08/31 02:45:29;;;;;;;10.63;7.50;;;14.70;99.90;;;;;;5115175;28;20403;-69
2021/08/31 02:47:54;;;;;;;10.43;9.30;;;14.70;99.90;;;;;;5113986;28;20175;-69
2021/08/31 02:50:20;;;;;;;10.30;8.60;;;14.80;99.90;;;;;;5115077;28;20643;-69
2021/08/31 02:52:46;;;;;;;11.00;9.80;;;14.80;99.90;;;;;;5114818;28;20193;-69
2021/08/31 02:55:12;;;;;;;9.60;8.60;;;14.80;99.90;;;;;;5114914;28;20169;-70
2021/08/31 02:57:38;;;;;;;10.77;8.23;;;14.70;99.90;;;;;;5113650;28;20227;-70
2021/08/31 03:00:05;;;;;;;9.13;8.20;;;14.70;99.90;;;;;;5096548;28;20407;-69
2021/08/31 03:02:31;;;;;;;8.57;7.77;;;14.70;99.90;;;;;;5114572;28;20418;-68
2021/08/31 03:04:56;;;;;;;9.37;8.07;;;14.80;99.90;;;;;;5114511;28;20762;-69
2021/08/31 03:07:22;;;;;;;11.57;7.97;;;14.80;99.90;;;;;;5113516;28;20161;-70
2021/08/31 03:09:48;;;;;;;10.73;8.70;;;14.80;99.90;;;;;;5113198;28;20176;-69
2021/08/31 03:12:13;;;;;;;10.50;9.40;;;14.80;99.90;;;;;;5114136;28;20228;-69
2021/08/31 03:14:39;;;;;;;11.27;9.57;;;14.80;99.90;;;;;;5114526;28;20161;-68
2021/08/31 03:17:05;;;;;;;11.77;8.33;;;14.70;99.90;;;;;;5114300;28;20237;-69
2021/08/31 03:19:31;;;;;;;14.57;10.23;;;14.80;99.90;;;;;;5096048;28;20245;-69
2021/08/31 03:21:58;;;;;;;10.30;7.87;;;14.80;99.90;;;;;;5112866;28;20443;-69
2021/08/31 03:24:25;;;;;;;10.33;8.67;;;14.80;99.90;;;;;;5113082;28;20643;-68
2021/08/31 03:26:51;;;;;;;15.07;9.07;;;14.80;99.90;;;;;;5114208;28;20403;-69
2021/08/31 03:29:16;;;;;;;14.60;7.63;;;14.80;99.90;;;;;;5113071;28;20398;-68
2021/08/31 03:31:42;;;;;;;10.40;7.30;;;14.80;99.90;;;;;;5112881;28;20554;-69
2021/08/31 03:34:08;;;;;;;11.77;10.20;;;14.80;99.90;;;;;;5112692;28;20189;-70
2021/08/31 03:36:33;;;;;;;14.30;8.23;;;14.80;99.90;;;;;;5114143;27;20192;-69
2021/08/31 03:38:59;;;;;;;9.37;8.23;;;14.80;99.90;;;;;;5113843;28;20265;-68
2021/08/31 03:41:24;;;;;;;12.97;8.50;;;14.80;99.90;;;;;;5113913;28;20210;-68
2021/08/31 03:43:50;;;;;;;9.47;8.43;;;14.80;99.90;;;;;;5112561;28;20189;-68
2021/08/31 03:46:15;;;;;;;9.87;8.80;;;14.80;99.90;;;;;;5113895;28;20165;-68
2021/08/31 03:48:41;;;;;;;11.50;10.20;;;14.70;99.90;;;;;;5113566;28;20259;-69
2021/08/31 03:51:07;;;;;;;10.27;9.27;;;14.70;99.90;;;;;;5113880;28;20583;-68
2021/08/31 03:53:33;;;;;;;9.80;8.73;;;14.70;99.90;;;;;;5113576;28;20668;-69
2021/08/31 03:55:58;;;;;;;10.00;9.10;;;14.70;99.90;;;;;;5112416;28;20442;-69
2021/08/31 03:58:24;;;;;;;10.27;9.00;;;14.70;99.90;;;;;;5112246;28;20201;-69
2021/08/31 04:00:50;;;;;;;11.87;8.67;;;14.70;99.90;;;;;;5112193;28;20168;-70
2021/08/31 04:03:16;;;;;;;10.67;9.13;;;14.70;99.90;;;;;;5113339;28;20200;-69
2021/08/31 04:05:41;;;;;;;12.80;8.53;;;14.70;99.90;;;;;;5112195;28;20945;-69
2021/08/31 04:08:07;;;;;;;10.47;8.07;;;14.70;99.90;;;;;;5111962;28;20172;-71
2021/08/31 04:10:33;;;;;;;10.40;8.50;;;14.70;99.90;;;;;;5113420;28;20193;-68
2021/08/31 04:12:58;;;;;;;9.67;8.73;;;14.70;99.90;;;;;;5113292;27;20664;-68
2021/08/31 04:15:24;;;;;;;11.10;8.37;;;14.70;99.90;;;;;;5112125;28;20435;-69
2021/08/31 04:17:50;;;;;;;10.60;8.93;;;14.70;99.90;;;;;;5112967;28;20197;-71
2021/08/31 04:20:15;;;;;;;9.30;8.13;;;14.70;99.90;;;;;;5113296;28;20651;-69
2021/08/31 04:22:41;;;;;;;8.70;7.83;;;14.70;99.90;;;;;;5111249;28;20200;-68
2021/08/31 04:25:07;;;;;;;9.40;8.03;;;14.70;99.90;;;;;;5113420;28;20170;-68
2021/08/31 04:27:33;;;;;;;8.63;7.80;;;14.70;99.90;;;;;;5112994;28;20670;-69
2021/08/31 04:29:58;;;;;;;10.17;7.37;;;14.70;99.90;;;;;;5111782;28;20403;-70
2021/08/31 04:32:24;;;;;;;13.57;9.93;;;14.70;99.90;;;;;;5112865;28;20184;-69
2021/08/31 04:34:52;;;;;;;13.70;9.60;;;14.70;99.90;;;;;;5113101;28;20176;-68
2021/08/31 04:37:18;;;;;;;8.17;7.37;;;14.70;99.90;;;;;;5112845;28;20264;-68
2021/08/31 04:39:44;;;;;;;9.87;8.03;;;14.70;99.90;;;;;;5113065;28;20806;-68
2021/08/31 04:42:10;;;;;;;10.00;9.00;;;14.70;99.90;;;;;;5112721;28;20486;-68
2021/08/31 04:44:36;;;;;;;10.03;8.80;;;14.70;99.90;;;;;;5112838;28;20206;-69
2021/08/31 04:47:02;;;;;;;9.03;7.67;;;14.70;99.90;;;;;;5112641;28;20418;-69
2021/08/31 04:49:28;;;;;;;9.53;8.23;;;14.70;99.90;;;;;;5111473;28;20164;-69
2021/08/31 04:51:53;;;;;;;16.10;9.20;;;14.70;99.90;;;;;;5112887;28;20169;-71
2021/08/31 04:54:19;;;;;;;11.70;8.30;;;14.70;99.90;;;;;;5111528;28;20656;-70
2021/08/31 04:56:44;;;;;;;9.30;8.20;;;14.70;99.90;;;;;;5111229;28;20165;-70
2021/08/31 04:59:10;;;;;;;11.50;8.00;;;14.70;99.90;;;;;;5112515;28;20613;-70
2021/08/31 05:01:36;;;;;;;8.53;7.17;;;14.70;99.90;;;;;;5112458;28;20188;-70
2021/08/31 05:04:02;;;;;;;9.37;8.40;;;14.70;99.90;;;;;;5111074;28;20870;-70
2021/08/31 05:06:27;;;;;;;15.23;8.70;;;14.70;99.90;;;;;;5111042;28;20252;-72
2021/08/31 05:08:53;;;;;;;10.33;8.70;;;14.70;99.90;;;;;;5111061;28;20169;-69
2021/08/31 05:11:20;;;;;;;9.03;8.13;;;14.70;99.90;;;;;;5112493;28;20195;-69
2021/08/31 05:13:45;;;;;;;9.20;7.20;;;14.70;99.90;;;;;;5111086;28;20242;-69
2021/08/31 05:16:13;;;;;;;9.17;7.93;;;14.70;99.90;;;;;;5111108;28;20403;-69
2021/08/31 05:18:39;;;;;;;9.77;8.77;;;14.70;99.90;;;;;;5112243;28;20705;-69
2021/08/31 05:21:05;;;;;;;9.50;8.27;;;14.70;99.90;;;;;;5111006;28;20411;-69
2021/08/31 05:23:35;;;;;;;11.00;8.63;;;14.70;99.90;;;;;;5111047;28;20281;-69
2021/08/31 05:26:01;;;;;;;9.80;8.80;;;14.70;99.90;;;;;;5112299;28;20399;-69
2021/08/31 05:28:26;;;;;;;10.07;7.77;;;14.60;99.90;;;;;;5112127;28;20463;-69
2021/08/31 05:30:52;;;;;;;10.53;9.43;;;14.60;99.90;;;;;;5112032;28;20199;-71
2021/08/31 05:33:18;;;;;;;11.83;9.80;;;14.70;99.90;;;;;;5111335;28;20427;-69
2021/08/31 05:35:43;;;;;;;10.47;8.53;;;14.60;99.90;;;;;;5116347;28;20165;-69
2021/08/31 05:38:09;;;;;;;11.97;9.37;;;14.70;99.90;;;;;;5116302;28;20193;-69
2021/08/31 05:40:35;;;;;;;9.93;8.87;;;14.60;99.90;;;;;;5116416;28;20557;-70
2021/08/31 05:43:00;;;;;;;8.70;7.80;;;14.70;99.90;;;;;;5116155;28;20189;-70
2021/08/31 05:45:28;;;;;;;11.27;8.20;;;14.70;99.90;;;;;;5114859;28;20197;-69
2021/08/31 05:47:54;;;;;;;10.83;9.00;;;14.70;99.90;;;;;;5116276;28;20161;-70
2021/08/31 05:50:19;;;;;;;12.30;8.20;;;14.70;99.90;;;;;;5116296;28;20405;-70
2021/08/31 05:52:45;;;;;;;8.53;7.67;;;14.80;99.90;;;;;;5114914;28;20675;-70
2021/08/31 05:55:11;;;;;;;10.50;8.60;;;14.80;99.90;;;;;;5097948;28;20176;-69
2021/08/31 05:57:36;;;;;;;8.67;7.83;;;14.80;99.90;;;;;;5115092;28;20197;-69
2021/08/31 06:00:04;;;;;;;8.27;7.47;;;14.80;99.90;;;;;;5114943;28;20177;-69
2021/08/31 06:02:30;;;;;;;9.33;8.33;;;14.80;99.90;;;;;;5116502;28;20594;-69
2021/08/31 06:04:55;;;;;;;8.33;7.37;;;14.80;99.90;;;;;;5116035;28;20402;-70
2021/08/31 06:07:21;;;;;;;7.93;7.20;;;14.90;99.90;;;;;;5115897;28;20177;-68
2021/08/31 06:09:49;;;;;;;9.00;8.10;;;14.80;99.90;;;;;;5115783;28;20172;-69
2021/08/31 06:12:14;;;;;;;9.20;7.43;;;14.90;99.90;;;;;;5114345;28;20192;-69
2021/08/31 06:14:41;;;;;;;8.90;7.37;;;14.90;99.90;;;;;;5096943;28;21005;-69
2021/08/31 06:17:07;;;;;;;9.83;7.73;;;14.90;99.90;;;;;;5114473;28;20207;-69
2021/08/31 06:19:33;;;;;;;8.67;7.63;;;14.90;99.90;;;;;;5114379;28;20467;-69
2021/08/31 06:21:59;;;;;;;9.77;8.80;;;14.90;99.90;;;;;;5115455;28;20432;-69
2021/08/31 06:24:25;;;;;;;10.13;6.97;;;14.90;99.90;;;;;;5114231;28;20431;-69
2021/08/31 06:26:51;;;;;;;8.43;7.10;;;14.90;99.90;;;;;;5114552;28;20780;-69
2021/08/31 06:29:16;;;;;;;11.27;7.80;;;14.90;99.90;;;;;;5114271;28;20494;-71
2021/08/31 06:31:42;;;;;;;7.13;6.43;;;14.90;99.90;;;;;;5114123;28;20176;-70
2021/08/31 06:34:10;;;;;;;13.50;8.43;;;14.90;99.90;;;;;;5114143;28;20227;-70
2021/08/31 06:36:36;;;;;;;8.73;7.90;;;14.90;99.90;;;;;;5115650;28;20706;-69
2021/08/31 06:39:02;;;;;;;8.70;7.80;;;14.90;99.90;;;;;;5113938;28;20443;-69
2021/08/31 06:41:27;;;;;;;8.20;7.40;;;14.90;99.90;;;;;;5115219;28;20173;-69
2021/08/31 06:43:53;;;;;;;11.57;7.87;;;14.90;99.90;;;;;;5115124;28;20433;-68
2021/08/31 06:46:18;;;;;;;8.53;7.63;;;15.00;99.90;;;;;;5113336;28;20197;-69
2021/08/31 06:48:45;;;;;;;8.20;7.20;;;15.00;99.90;;;;;;5113736;28;20259;-69
2021/08/31 06:51:12;;;;;;;11.30;7.77;;;15.00;99.90;;;;;;5115075;28;20169;-69
2021/08/31 06:53:39;;;;;;;8.13;6.90;;;15.00;99.90;;;;;;5115013;28;21000;-69
2021/08/31 06:56:07;;;;;;;7.70;6.60;;;15.00;99.90;;;;;;5113570;28;20418;-69
2021/08/31 06:58:33;;;;;;;9.27;6.60;;;15.10;99.90;;;;;;5114803;27;20454;-69
2021/08/31 07:00:58;;;;;;;7.97;6.87;;;15.20;99.90;;;;;;5096453;28;20407;-69
2021/08/31 07:03:24;;;;;;;7.63;6.97;;;15.20;99.90;;;;;;5113520;28;20426;-70
2021/08/31 07:05:50;;;;;;;6.60;6.00;;;15.20;99.90;;;;;;5113754;28;20169;-70
2021/08/31 07:08:16;;;;;;;10.93;7.17;;;15.30;99.90;;;;;;5114754;28;20422;-70
2021/08/31 07:10:42;;;;;;;8.43;7.43;;;15.50;99.90;;;;;;5114520;28;20162;-70
2021/08/31 07:13:08;;;;;;;7.93;6.60;;;15.60;99.90;;;;;;5113310;28;20270;-70
2021/08/31 07:15:34;;;;;;;11.50;7.30;;;15.70;99.90;;;;;;5114451;28;20905;-70
2021/08/31 07:18:00;;;;;;;14.90;6.80;;;15.90;99.90;;;;;;5112769;28;20358;-71
2021/08/31 07:20:27;;;;;;;6.40;5.80;;;16.00;99.90;;;;;;5114327;28;20413;-71
2021/08/31 07:22:53;;;;;;;8.80;7.60;;;16.10;99.90;;;;;;5114379;28;20431;-70
2021/08/31 07:25:19;;;;;;;7.47;5.70;;;16.30;99.90;;;;;;5113087;28;20887;-70
2021/08/31 07:27:49;;;;;;;8.23;5.47;;;16.30;99.90;;;;;;5114324;28;20891;-70
2021/08/31 07:30:20;;;;;;;7.13;5.37;;;16.40;99.90;;;;;;5115557;28;20453;-69
2021/08/31 07:32:51;;;;;;;7.43;5.70;;;16.50;99.90;;;;;;5115653;28;20434;-70
2021/08/31 07:35:17;;;;;;;7.47;5.43;;;16.50;99.90;;;;;;5114592;28;20427;-69
2021/08/31 07:37:43;;;;;;;6.87;6.10;;;16.40;99.90;;;;;;5114383;28;20449;-71
2021/08/31 07:40:09;;;;;;;7.60;6.07;;;16.40;99.90;;;;;;5114823;28;20231;-70
2021/08/31 07:42:36;;;;;;;7.93;6.60;;;16.50;99.90;;;;;;5113295;28;20222;-69
2021/08/31 07:45:07;;;;;;;5.43;4.93;;;16.70;99.90;;;;;;5112626;28;20409;-69
2021/08/31 07:47:33;;;;;;;5.90;5.10;;;16.70;99.90;;;;;;5112498;28;20414;-69
2021/08/31 07:50:00;;;;;;;7.20;6.50;;;17.00;99.90;;;;;;5113648;28;20425;-69
2021/08/31 07:52:26;;;;;;;7.70;6.67;;;17.20;99.90;;;;;;5112324;28;20444;-69
2021/08/31 07:54:51;;;;;;;7.17;5.37;;;18.00;99.90;;;;;;5112392;28;20412;-69
2021/08/31 07:57:19;;;;;;;5.60;5.00;;;18.70;99.90;;;;;;5112499;28;20178;-70
2021/08/31 07:59:45;;;;;;;7.73;4.40;;;19.40;99.90;;;;;;5113664;28;20167;-70
2021/08/31 08:02:11;;;;;;;6.73;5.07;;;19.90;99.90;;;;;;5112299;28;20766;-70
2021/08/31 08:04:36;;;;;;;4.43;4.03;;;19.80;99.90;;;;;;5113650;28;20542;-69
2021/08/31 08:07:02;;;;;;;5.43;4.47;;;19.80;99.90;;;;;;5112091;28;20222;-69
2021/08/31 08:09:27;;;;;;;6.20;5.43;;;19.20;99.90;;;;;;5113793;28;20173;-71
2021/08/31 08:11:55;;;;;;;5.53;4.27;;;19.40;99.90;;;;;;5112126;28;20224;-71
2021/08/31 08:14:21;;;;;;;4.93;4.43;;;19.70;99.90;;;;;;5113373;28;20186;-71
2021/08/31 08:16:47;;;;;;;5.63;4.80;;;20.20;99.90;;;;;;5113102;28;20452;-71
2021/08/31 08:19:12;;;;;;;4.93;4.50;;;19.90;99.90;;;;;;5111785;28;20499;-70
2021/08/31 08:21:38;;;;;;;5.40;4.10;;;19.80;99.90;;;;;;5112997;28;20163;-70
2021/08/31 08:24:04;;;;;;;6.37;4.93;;;19.20;99.90;;;;;;5113188;28;20549;-70
2021/08/31 08:26:30;;;;;;;5.80;4.80;;;18.70;99.90;;;;;;5111861;28;20172;-72
2021/08/31 08:28:56;;;;;;;6.07;5.47;;;18.60;99.90;;;;;;5111848;28;20831;-68
2021/08/31 08:31:21;;;;;;;7.53;4.93;;;18.50;99.90;;;;;;5113035;28;20183;-70
2021/08/31 08:33:47;;;;;;;6.40;5.70;;;18.80;99.90;;;;;;5113158;28;20201;-68
2021/08/31 08:36:13;;;;;;;6.67;5.97;;;18.30;99.90;;;;;;5113301;28;20179;-68
2021/08/31 08:38:39;;;;;;;7.23;6.13;;;18.20;99.90;;;;;;5113382;28;20197;-69
2021/08/31 08:41:06;;;;;;;9.07;7.60;;;17.90;99.90;;;;;;5113416;28;20631;-69
2021/08/31 08:43:33;;;;;;;5.80;5.30;;;17.80;99.90;;;;;;5111969;28;20193;-69
2021/08/31 08:46:05;;;;;;;6.57;5.80;;;18.00;99.90;;;;;;5111891;28;20415;-68
2021/08/31 08:48:31;;;;;;;5.57;5.10;;;18.30;99.90;;;;;;5095386;28;20424;-69
2021/08/31 08:50:59;;;;;;;6.07;5.43;;;18.40;99.90;;;;;;5111755;28;20405;-69
2021/08/31 08:53:26;;;;;;;7.37;5.00;;;18.40;99.90;;;;;;5094891;28;20955;-69
2021/08/31 08:55:52;;;;;;;6.40;5.43;;;18.40;99.90;;;;;;5095413;28;20419;-69
2021/08/31 08:58:18;;;;;;;5.50;4.97;;;18.40;99.90;;;;;;5113124;28;20537;-69
2021/08/31 09:01:04;;;;;;;7.50;5.97;;;18.40;99.90;;;;;;5113051;28;20410;-69
2021/08/31 09:03:33;;;;;;;5.20;4.43;;;18.70;99.90;;;;;;5113148;28;20416;-69
2021/08/31 09:06:12;;;;;;;6.07;4.80;;;18.90;99.90;;;;;;5112952;28;20396;-69
2021/08/31 09:08:43;;;;;;;7.10;6.40;;;19.20;99.90;;;;;;5111267;28;20945;-69
2021/08/31 09:11:29;;;;;;;10.37;6.33;;;19.00;99.90;;;;;;5113044;28;20407;-69
2021/08/31 09:14:29;;;;;;;6.43;5.20;;;19.00;99.90;;;;;;5112788;28;20431;-70
2021/08/31 09:17:00;;;;;;;6.50;5.90;;;18.90;99.90;;;;;;5112790;28;20474;-69
2021/08/31 09:19:28;;;;;;;6.30;5.70;;;19.20;99.90;;;;;;5094621;28;20518;-69
2021/08/31 09:22:19;;;;;;;5.67;5.17;;;19.00;99.90;;;;;;5111738;28;20415;-70
2021/08/31 09:24:58;;;;;;;9.87;5.83;;;19.10;99.90;;;;;;5112870;28;20499;-69
2021/08/31 09:27:51;;;;;;;5.63;5.00;;;18.80;99.90;;;;;;5112968;28;20425;-69
2021/08/31 09:30:26;;;;;;;7.27;5.90;;;18.70;99.90;;;;;;5107471;28;20423;-69
2021/08/31 09:33:12;;;;;;;6.13;5.53;;;18.80;99.90;;;;;;5111363;28;20460;-69
2021/08/31 09:35:39;;;;;;;8.20;5.90;;;18.90;99.90;;;;;;5112792;28;20415;-69
2021/08/31 09:38:14;;;;;;;6.30;5.70;;;18.90;99.90;;;;;;5111057;28;20506;-69
2021/08/31 09:40:44;;;;;;;11.53;5.63;;;18.80;99.90;;;;;;5095817;28;20484;-69
2021/08/31 09:43:16;;;;;;;7.47;5.30;;;19.00;99.90;;;;;;5111408;28;20919;-69
2021/08/31 09:45:49;;;;;;;5.83;5.20;;;19.10;99.90;;;;;;5112849;28;20436;-69
2021/08/31 09:48:23;;;;;;;5.70;5.20;;;19.40;99.90;;;;;;5112932;27;20916;-71
2021/08/31 09:50:55;;;;;;;5.70;5.20;;;19.30;99.90;;;;;;5112740;28;20799;-69
2021/08/31 09:53:26;;;;;;;4.70;4.30;;;19.30;99.90;;;;;;5111145;28;20426;-69
2021/08/31 09:56:01;;;;;;;5.60;5.10;;;19.20;99.90;;;;;;5111408;28;20423;-69
2021/08/31 09:58:29;;;;;;;5.50;5.00;;;19.10;99.90;;;;;;5111206;28;20454;-69
2021/08/31 10:00:55;;;;;;;5.40;4.90;;;19.20;99.90;;;;;;5112487;28;20925;-69
2021/08/31 10:03:24;;;;;;;6.43;5.80;;;19.30;99.90;;;;;;5112400;28;20825;-69
2021/08/31 10:05:51;;;;;;;6.10;5.10;;;19.20;99.90;;;;;;5111030;28;20414;-69
2021/08/31 10:08:19;;;;;;;5.53;4.80;;;19.40;99.90;;;;;;5112126;28;20423;-69
2021/08/31 10:10:49;;;;;;;7.07;5.80;;;19.20;99.90;;;;;;5110890;28;20531;-70
2021/08/31 10:13:21;;;;;;;5.73;5.13;;;18.90;99.90;;;;;;5112033;28;20428;-69
2021/08/31 10:15:52;;;;;;;5.77;5.17;;;19.10;99.90;;;;;;5111864;28;20403;-70
2021/08/31 10:18:36;;;;;;;6.57;5.97;;;19.10;99.90;;;;;;5110139;28;20679;-68
2021/08/31 10:21:11;;;;;;;7.10;4.90;;;19.30;99.90;;;;;;5112034;28;20507;-69
2021/08/31 10:23:39;;;;;;;6.13;5.63;;;19.40;99.90;;;;;;5114390;28;20439;-72
2021/08/31 10:26:23;;;;;;;6.73;5.10;;;19.40;99.90;;;;;;5115551;28;20408;-67
2021/08/31 10:29:12;;;;;;;6.60;5.43;;;19.30;99.90;;;;;;5113843;28;20496;-70
2021/08/31 10:31:38;;;;;;;5.23;4.73;;;19.40;99.90;;;;;;5115293;28;20415;-70
2021/08/31 10:34:29;;;;;;;9.43;7.90;;;19.60;99.90;;;;;;5113806;28;20435;-68
2021/08/31 10:37:02;;;;;;;9.80;8.87;;;19.60;99.90;;;;;;5100720;28;20184;-69
2021/08/31 10:39:43;;;;;;;6.50;5.20;;;19.80;99.90;;;;;;5115301;28;20452;-68
2021/08/31 10:42:10;;;;;;;7.07;6.43;;;19.10;99.90;;;;;;5115268;28;20404;-68
2021/08/31 10:44:41;;;;;;;5.40;4.87;;;19.40;99.90;;;;;;5115146;28;20496;-67
2021/08/31 10:47:13;;;;;;;6.43;5.43;;;19.40;99.90;;;;;;5115870;28;20413;-68
2021/08/31 10:49:57;;;;;;;7.70;6.10;;;19.60;99.90;;;;;;5115170;28;20432;-67
2021/08/31 10:52:39;;;;;;;7.67;6.30;;;19.40;99.90;;;;;;5115194;28;20414;-68
2021/08/31 10:55:18;;;;;;;6.40;5.80;;;19.10;99.90;;;;;;5114020;28;20823;-67
2021/08/31 10:57:44;;;;;;;10.60;6.10;;;18.90;99.90;;;;;;5098227;28;20457;-69
2021/08/31 11:00:16;;;;;;;7.37;5.93;;;19.30;99.90;;;;;;5113587;28;20414;-70
2021/08/31 11:02:48;;;;;;;6.07;5.47;;;19.20;99.90;;;;;;5114965;27;20829;-69
2021/08/31 11:05:24;;;;;;;6.70;6.07;;;19.20;99.90;;;;;;5113452;28;20418;-68
2021/08/31 11:07:54;;;;;;;7.93;6.00;;;19.60;99.90;;;;;;5114760;28;20420;-68
2021/08/31 11:10:25;;;;;;;5.70;4.97;;;19.80;99.90;;;;;;5113263;28;20417;-68
2021/08/31 11:12:52;;;;;;;6.60;6.00;;;19.60;99.90;;;;;;5114491;28;20439;-68
2021/08/31 11:15:21;;;;;;;6.83;6.20;;;19.30;99.90;;;;;;5096506;28;21000;-68
2021/08/31 11:17:49;;;;;;;5.47;4.97;;;19.80;99.90;;;;;;5113211;28;20467;-67
2021/08/31 11:20:20;;;;;;;6.83;5.73;;;20.10;99.90;;;;;;5114669;28;21050;-66
2021/08/31 11:22:50;;;;;;;7.20;5.87;;;20.00;99.90;;;;;;5113069;28;20525;-66
2021/08/31 11:25:24;;;;;;;7.00;5.10;;;20.20;99.90;;;;;;5113072;28;20409;-67
2021/08/31 11:28:11;;;;;;;6.63;5.90;;;20.00;99.90;;;;;;5113331;28;20411;-67
2021/08/31 11:30:55;;;;;;;5.80;4.77;;;20.00;99.90;;;;;;5113160;28;20834;-67
2021/08/31 11:33:30;;;;;;;7.43;5.63;;;20.20;99.90;;;;;;5113869;28;20436;-67
2021/08/31 11:35:59;;;;;;;5.63;5.03;;;20.40;99.90;;;;;;5112779;28;20425;-68
2021/08/31 11:38:39;;;;;;;6.13;5.50;;;20.40;99.90;;;;;;5112815;28;20506;-67
2021/08/31 11:41:17;;;;;;;5.20;4.70;;;20.40;99.90;;;;;;5114143;28;20437;-69
2021/08/31 11:43:52;;;;;;;5.17;4.70;;;20.30;99.90;;;;;;5113949;28;20923;-67
2021/08/31 11:46:29;;;;;;;5.60;4.87;;;20.10;99.90;;;;;;5114069;28;20440;-69
2021/08/31 11:49:15;;;;;;;5.43;4.93;;;20.10;99.90;;;;;;5113860;28;20910;-68
2021/08/31 11:52:00;;;;;;;8.03;6.47;;;20.20;99.90;;;;;;5112447;28;20497;-68
2021/08/31 11:54:28;;;;;;;5.47;4.97;;;20.10;99.90;;;;;;5112529;28;20705;-68
2021/08/31 11:57:03;;;;;;;4.07;3.67;;;19.90;99.90;;;;;;5111703;28;20418;-68
2021/08/31 11:59:48;;;;;;;5.43;4.93;;;19.80;99.90;;;;;;5113381;27;20455;-68
2021/08/31 12:02:30;;;;;;;6.07;4.80;;;19.80;99.90;;;;;;5113628;28;20453;-68
2021/08/31 12:04:56;;;;;;;9.43;4.57;;;20.00;99.90;;;;;;5112324;28;20488;-67
2021/08/31 12:07:27;;;;;;;5.70;4.90;;;19.80;99.90;;;;;;5112227;28;20740;-67
2021/08/31 12:09:57;;;;;;;5.47;4.97;;;19.60;99.90;;;;;;5112218;28;20415;-66
2021/08/31 12:12:23;;;;;;;5.17;4.50;;;19.70;99.90;;;;;;5113233;28;20459;-68
2021/08/31 12:14:50;;;;;;;4.67;4.27;;;19.40;99.90;;;;;;5112045;28;20808;-69
2021/08/31 12:17:42;;;;;;;5.30;4.80;;;19.40;99.90;;;;;;5111862;28;20181;-68
2021/08/31 12:20:10;;;;;;;5.70;5.10;;;19.10;99.90;;;;;;5113371;28;20869;-66
2021/08/31 12:22:38;;;;;;;8.37;4.80;;;19.10;99.90;;;;;;5111968;28;20522;-68
2021/08/31 12:25:04;;;;;;;4.93;4.17;;;19.30;99.90;;;;;;5113423;28;20448;-67
2021/08/31 12:27:42;;;;;;;6.23;4.43;;;19.60;99.90;;;;;;5111885;28;20418;-66
2021/08/31 12:30:10;;;;;;;4.63;4.13;;;19.50;99.90;;;;;;5113570;28;20855;-66
2021/08/31 12:32:37;;;;;;;5.00;4.50;;;19.60;99.90;;;;;;5112021;28;20437;-66
2021/08/31 12:35:28;;;;;;;5.20;4.80;;;20.00;99.90;;;;;;5112155;28;20558;-67
2021/08/31 12:38:31;;;;;;;8.37;4.53;;;19.90;99.90;;;;;;5111644;28;20509;-68
2021/08/31 12:40:59;;;;;;;5.03;4.60;;;20.00;99.90;;;;;;5111743;28;20419;-68
2021/08/31 12:43:28;;;;;;;6.83;4.43;;;19.70;99.90;;;;;;5112437;28;20424;-68
2021/08/31 12:45:59;;;;;;;4.83;4.43;;;19.80;99.90;;;;;;5113157;28;20834;-68
2021/08/31 12:48:36;;;;;;;5.67;5.10;;;19.80;99.90;;;;;;5111683;28;20926;-67
2021/08/31 12:51:05;;;;;;;6.10;4.57;;;19.80;99.90;;;;;;5112820;28;20523;-68